Time;durP1;ratioP1;P1;durP2;ratioP2;P2;SDS_P1;SDS_P2;PMS_P1;PMS_P2;Temp;Humidity;BMP_temperature;BMP_pressure;BME280_temperature;BME280_humidity;BME280_pressure;Samples;Min_cycle;Max_cycle;Signal;HPM_P1;HPM_P2
2023/11/03 00:02:00;;;;;;;4.32;2.55;;;;;;;4.23;100.00;94592.69;5016354;28;20401;-81
2023/11/03 00:04:26;;;;;;;5.70;2.85;;;;;;;4.19;100.00;94590.94;4999250;28;20450;-82
2023/11/03 00:06:53;;;;;;;9.18;3.08;;;;;;;4.14;100.00;94585.72;5016857;28;20428;-82
2023/11/03 00:09:23;;;;;;;6.45;2.70;;;;;;;4.10;100.00;94590.75;5017025;28;20401;-80
2023/11/03 00:11:49;;;;;;;4.75;2.40;;;;;;;4.07;100.00;94580.03;5017443;28;20397;-81
2023/11/03 00:14:17;;;;;;;5.15;2.60;;;;;;;4.02;100.00;94586.13;5019359;28;20466;-80
2023/11/03 00:16:46;;;;;;;4.10;2.42;;;;;;;4.00;100.00;94583.00;5017554;28;20404;-82
2023/11/03 00:19:14;;;;;;;5.57;2.50;;;;;;;3.99;100.00;94583.28;5016617;28;20408;-81
2023/11/03 00:21:41;;;;;;;5.55;2.42;;;;;;;3.96;100.00;94591.69;5016756;28;20392;-82
2023/11/03 00:24:08;;;;;;;5.47;2.53;;;;;;;3.94;100.00;94591.19;5019034;28;20405;-82
2023/11/03 00:26:34;;;;;;;7.50;2.50;;;;;;;3.92;100.00;94594.06;5020597;28;20459;-81
2023/11/03 00:29:00;;;;;;;3.58;2.20;;;;;;;3.93;100.00;94594.84;5016637;28;20432;-81
2023/11/03 00:31:26;;;;;;;6.30;2.42;;;;;;;3.92;100.00;94601.94;5021107;28;20928;-82
2023/11/03 00:33:52;;;;;;;4.53;2.50;;;;;;;3.91;100.00;94595.13;5020205;28;20411;-82
2023/11/03 00:36:20;;;;;;;8.10;3.07;;;;;;;3.90;100.00;94604.06;5020061;28;20433;-82
2023/11/03 00:38:46;;;;;;;3.67;2.30;;;;;;;3.89;100.00;94603.28;5019232;28;20469;-82
2023/11/03 00:41:14;;;;;;;8.32;2.60;;;;;;;3.85;100.00;94586.56;5018198;28;20411;-82
2023/11/03 00:43:41;;;;;;;8.18;2.90;;;;;;;3.84;100.00;94586.81;5023587;28;20895;-82
2023/11/03 00:46:08;;;;;;;5.95;2.70;;;;;;;3.82;100.00;94591.56;5038677;28;20471;-82
2023/11/03 00:48:34;;;;;;;9.48;2.67;;;;;;;3.80;100.00;94591.84;5038672;28;20406;-82
2023/11/03 00:51:00;;;;;;;4.32;2.53;;;;;;;3.78;100.00;94593.16;5039281;28;20399;-82
2023/11/03 00:53:27;;;;;;;5.40;2.45;;;;;;;3.78;100.00;94593.94;5038280;28;20513;-82
2023/11/03 00:55:53;;;;;;;6.32;2.35;;;;;;;3.76;100.00;94597.91;5038096;28;20490;-83
2023/11/03 00:58:20;;;;;;;5.15;2.65;;;;;;;3.75;100.00;94597.13;5038313;28;20399;-83
2023/11/03 01:00:47;;;;;;;5.47;2.70;;;;;;;3.74;100.00;94597.41;5038363;28;20467;-82
2023/11/03 01:03:14;;;;;;;6.15;2.85;;;;;;;3.69;100.00;94589.59;5038358;28;20793;-82
2023/11/03 01:05:40;;;;;;;5.22;2.40;;;;;;;3.69;100.00;94594.81;5038498;28;20469;-81
2023/11/03 01:08:06;;;;;;;3.10;2.45;;;;;;;3.69;100.00;94600.06;5038771;28;20399;-81
2023/11/03 01:10:34;;;;;;;6.88;2.75;;;;;;;3.68;100.00;94599.28;5037787;28;20396;-81
2023/11/03 01:13:01;;;;;;;5.90;2.65;;;;;;;3.70;100.00;94599.78;5042695;28;20410;-83
2023/11/03 01:15:29;;;;;;;14.25;3.47;;;;;;;3.74;100.00;94602.63;5043484;28;20410;-82
2023/11/03 01:17:55;;;;;;;10.73;3.25;;;;;;;3.79;100.00;94600.75;5041840;28;20395;-82
2023/11/03 01:20:27;;;;;;;10.57;3.45;;;;;;;3.84;100.00;94616.38;5042846;28;20474;-82
2023/11/03 01:22:54;;;;;;;11.15;3.20;;;;;;;3.87;100.00;94613.22;5044168;28;20429;-83
2023/11/03 01:25:23;;;;;;;12.40;3.13;;;;;;;3.91;100.00;94616.06;5045865;28;20435;-82
2023/11/03 01:27:51;;;;;;;12.35;3.83;;;;;;;3.94;100.00;94620.75;5047870;28;20441;-81
2023/11/03 01:30:20;;;;;;;8.75;3.70;;;;;;;3.99;100.00;94622.53;5049548;28;20469;-83
2023/11/03 01:32:46;;;;;;;12.60;3.50;;;;;;;4.01;100.00;94618.59;5040316;28;20891;-83
2023/11/03 01:35:12;;;;;;;8.98;3.42;;;;;;;4.04;100.00;94631.13;5022143;28;20925;-82
2023/11/03 01:37:39;;;;;;;13.52;3.28;;;;;;;4.08;100.00;94620.88;5022451;28;20396;-82
2023/11/03 01:40:08;;;;;;;4.82;2.53;;;;;;;4.11;100.00;94622.94;5021549;28;20413;-83
2023/11/03 01:42:34;;;;;;;9.25;2.88;;;;;;;4.10;100.00;94614.31;5020061;28;20449;-82
2023/11/03 01:45:04;;;;;;;5.88;2.90;;;;;;;4.13;100.00;94623.47;5034281;28;20395;-82
2023/11/03 01:47:30;;;;;;;6.40;2.65;;;;;;;4.13;100.00;94626.06;5039446;28;20490;-82
2023/11/03 01:49:57;;;;;;;5.05;2.53;;;;;;;4.10;100.00;94631.84;5045750;28;20407;-82
2023/11/03 01:52:24;;;;;;;6.10;2.75;;;;;;;4.07;100.00;94648.09;5038903;28;20399;-81
2023/11/03 01:54:50;;;;;;;6.83;2.50;;;;;;;4.01;100.00;94642.13;5039957;28;20440;-79
2023/11/03 01:57:18;;;;;;;6.13;2.60;;;;;;;3.95;100.00;94639.84;5045037;28;20411;-81
2023/11/03 01:59:46;;;;;;;6.60;2.60;;;;;;;3.89;100.00;94645.16;5041720;28;20699;-81
2023/11/03 02:02:14;;;;;;;4.20;2.40;;;;;;;3.86;100.00;94639.66;5038750;28;20463;-82
2023/11/03 02:04:41;;;;;;;4.13;2.40;;;;;;;3.79;100.00;94634.75;5038113;28;20423;-81
2023/11/03 02:07:07;;;;;;;4.37;2.43;;;;;;;3.74;100.00;94628.81;5038312;28;20419;-82
2023/11/03 02:09:33;;;;;;;8.38;3.30;;;;;;;3.69;100.00;94628.81;5038640;28;20434;-81
2023/11/03 02:12:00;;;;;;;4.55;2.58;;;;;;;3.66;100.00;94634.63;5038565;28;20517;-82
2023/11/03 02:14:26;;;;;;;5.10;2.42;;;;;;;3.61;100.00;94627.56;5038268;28;20434;-81
2023/11/03 02:16:52;;;;;;;5.90;2.70;;;;;;;3.58;100.00;94624.75;5039636;28;20411;-82
2023/11/03 02:19:20;;;;;;;7.90;3.10;;;;;;;3.53;100.00;94630.03;5038330;28;20412;-79
2023/11/03 02:21:46;;;;;;;7.13;2.70;;;;;;;3.48;100.00;94631.63;5038493;28;20437;-82
2023/11/03 02:24:14;;;;;;;3.92;2.60;;;;;;;3.44;100.00;94629.81;5038135;28;20743;-81
2023/11/03 02:26:40;;;;;;;5.93;2.80;;;;;;;3.41;100.00;94625.91;5038341;28;20498;-82
2023/11/03 02:29:06;;;;;;;5.80;2.63;;;;;;;3.37;100.00;94632.75;5038535;28;20406;-81
2023/11/03 02:31:32;;;;;;;5.88;2.55;;;;;;;3.34;100.00;94641.13;5038193;28;20430;-81
2023/11/03 02:33:59;;;;;;;6.57;2.75;;;;;;;3.34;100.00;94638.53;5021347;28;20436;-82
2023/11/03 02:36:25;;;;;;;5.45;2.30;;;;;;;3.33;100.00;94638.78;5019030;28;20412;-82
2023/11/03 02:38:53;;;;;;;6.97;2.65;;;;;;;3.30;100.00;94627.06;5018825;28;20451;-81
2023/11/03 02:41:20;;;;;;;4.05;2.33;;;;;;;3.28;100.00;94631.78;5019526;28;20889;-83
2023/11/03 02:43:47;;;;;;;3.72;2.45;;;;;;;3.28;100.00;94634.38;5023326;28;20440;-82
2023/11/03 02:46:14;;;;;;;4.03;2.37;;;;;;;3.27;100.00;94630.22;5041739;28;20486;-81
2023/11/03 02:48:41;;;;;;;3.53;2.50;;;;;;;3.27;100.00;94626.81;5037619;28;20399;-82
2023/11/03 02:51:07;;;;;;;2.97;2.20;;;;;;;3.27;100.00;94635.44;5038266;28;20426;-83
2023/11/03 02:53:33;;;;;;;4.00;2.45;;;;;;;3.27;100.00;94635.44;5040106;28;20395;-80
2023/11/03 02:55:59;;;;;;;5.25;2.10;;;;;;;3.27;100.00;94632.81;5040456;28;20403;-82
2023/11/03 02:58:31;;;;;;;4.27;2.27;;;;;;;3.28;100.00;94631.00;5039772;28;20869;-82
2023/11/03 03:00:58;;;;;;;4.07;2.50;;;;;;;3.25;100.00;94637.53;5039418;28;20467;-82
2023/11/03 03:03:24;;;;;;;3.85;2.60;;;;;;;3.24;100.00;94627.34;5039993;28;20449;-83
2023/11/03 03:05:50;;;;;;;3.95;2.40;;;;;;;3.21;100.00;94628.69;5039677;28;20421;-82
2023/11/03 03:08:16;;;;;;;3.78;2.40;;;;;;;3.20;100.00;94623.72;5039764;28;20395;-82
2023/11/03 03:10:43;;;;;;;4.20;2.47;;;;;;;3.19;100.00;94633.41;5039022;28;20403;-81
2023/11/03 03:13:09;;;;;;;7.28;2.85;;;;;;;3.18;100.00;94629.22;5040108;28;20763;-80
2023/11/03 03:15:36;;;;;;;7.63;2.80;;;;;;;3.19;100.00;94637.84;5039751;28;20407;-83
2023/11/03 03:18:03;;;;;;;6.63;2.50;;;;;;;3.19;100.00;94640.47;5039404;28;20399;-80
2023/11/03 03:20:29;;;;;;;5.47;2.65;;;;;;;3.20;100.00;94639.41;5039504;28;20405;-83
2023/11/03 03:22:55;;;;;;;6.32;2.65;;;;;;;3.20;100.00;94642.03;5042547;28;20383;-83
2023/11/03 03:25:21;;;;;;;4.83;2.57;;;;;;;3.20;100.00;94636.78;5039683;28;20452;-82
2023/11/03 03:27:47;;;;;;;6.47;2.80;;;;;;;3.19;100.00;94638.63;5039448;28;20394;-82
2023/11/03 03:30:14;;;;;;;4.05;2.78;;;;;;;3.20;100.00;94634.19;5039317;28;20399;-82
2023/11/03 03:32:42;;;;;;;4.95;2.40;;;;;;;3.21;100.00;94625.28;5033519;28;20424;-83
2023/11/03 03:35:09;;;;;;;4.63;2.80;;;;;;;3.20;100.00;94621.91;5019341;28;20428;-82
2023/11/03 03:37:35;;;;;;;5.82;2.90;;;;;;;3.22;100.00;94622.41;5019389;28;20408;-82
2023/11/03 03:40:01;;;;;;;5.28;2.60;;;;;;;3.23;100.00;94626.59;5019975;28;20408;-82
2023/11/03 03:42:27;;;;;;;4.53;2.90;;;;;;;3.24;100.00;94622.91;5019557;28;20802;-82
2023/11/03 03:44:53;;;;;;;5.30;2.80;;;;;;;3.26;100.00;94622.63;5019661;28;20761;-82
2023/11/03 03:47:19;;;;;;;4.43;2.85;;;;;;;3.27;100.00;94624.97;5020417;28;20448;-83
2023/11/03 03:49:47;;;;;;;6.60;2.60;;;;;;;3.30;100.00;94626.28;5019150;28;20427;-83
2023/11/03 03:52:13;;;;;;;3.72;2.63;;;;;;;3.33;100.00;94623.88;5021154;28;20769;-82
2023/11/03 03:54:39;;;;;;;6.30;2.85;;;;;;;3.37;100.00;94627.53;5019524;28;20886;-82
2023/11/03 03:57:05;;;;;;;4.68;2.60;;;;;;;3.42;100.00;94630.09;5019021;28;20410;-83
2023/11/03 03:59:32;;;;;;;4.30;2.78;;;;;;;3.47;100.00;94637.88;5018944;28;20801;-83
2023/11/03 04:01:58;;;;;;;5.40;2.75;;;;;;;3.54;100.00;94632.34;5018470;28;20405;-83
2023/11/03 04:04:25;;;;;;;3.97;2.90;;;;;;;3.60;100.00;94633.09;5019667;28;20754;-83
2023/11/03 04:06:52;;;;;;;3.72;2.60;;;;;;;3.64;100.00;94640.13;5019011;28;20769;-82
2023/11/03 04:09:18;;;;;;;5.55;2.70;;;;;;;3.71;100.00;94658.09;5018472;28;20407;-82
2023/11/03 04:11:45;;;;;;;12.85;3.78;;;;;;;3.77;100.00;94676.09;5024321;28;20476;-82
2023/11/03 04:14:11;;;;;;;10.52;3.83;;;;;;;3.82;100.00;94665.63;5018349;28;20408;-82
2023/11/03 04:16:37;;;;;;;7.13;3.60;;;;;;;3.92;100.00;94679.66;5019298;28;20877;-82
2023/11/03 04:19:03;;;;;;;6.70;3.50;;;;;;;3.99;100.00;94669.63;5019848;28;20431;-82
2023/11/03 04:21:30;;;;;;;6.20;3.22;;;;;;;4.04;100.00;94657.31;5018856;28;20515;-83
2023/11/03 04:23:57;;;;;;;6.07;3.10;;;;;;;4.08;100.00;94641.81;5018877;28;20396;-82
2023/11/03 04:26:24;;;;;;;4.65;3.05;;;;;;;4.13;100.00;94639.16;5018662;28;20560;-82
2023/11/03 04:28:50;;;;;;;5.57;2.80;;;;;;;4.15;100.00;94635.19;5018776;28;20753;-81
2023/11/03 04:31:16;;;;;;;3.15;2.70;;;;;;;4.17;100.00;94634.91;5018782;28;20459;-82
2023/11/03 04:33:43;;;;;;;3.15;2.55;;;;;;;4.20;100.00;94634.38;5032791;28;20395;-83
2023/11/03 04:36:10;;;;;;;4.75;2.50;;;;;;;4.21;100.00;94626.22;5021391;28;20440;-83
2023/11/03 04:38:36;;;;;;;4.38;2.78;;;;;;;4.22;100.00;94633.03;5038001;28;20893;-82
2023/11/03 04:41:04;;;;;;;3.85;2.38;;;;;;;4.24;100.00;94628.28;5038072;28;20398;-82
2023/11/03 04:43:35;;;;;;;7.10;2.60;;;;;;;4.25;100.00;94626.47;5035124;28;20427;-83
2023/11/03 04:46:03;;;;;;;5.23;2.70;;;;;;;4.27;100.00;94629.59;5001448;28;20532;-82
2023/11/03 04:48:29;;;;;;;4.25;2.70;;;;;;;4.27;100.00;94634.81;5021190;28;20776;-81
2023/11/03 04:50:55;;;;;;;10.27;3.10;;;;;;;4.29;100.00;94637.94;5022478;28;20404;-83
2023/11/03 04:53:21;;;;;;;10.90;3.72;;;;;;;4.29;100.00;94633.47;5022378;28;20489;-82
2023/11/03 04:55:48;;;;;;;5.65;2.80;;;;;;;4.33;100.00;94646.78;5023029;28;20826;-82
2023/11/03 04:58:16;;;;;;;7.57;2.90;;;;;;;4.36;100.00;94642.84;5022976;28;20396;-83
2023/11/03 05:00:43;;;;;;;8.00;3.45;;;;;;;4.38;100.00;94638.09;5025887;28;20859;-82
2023/11/03 05:03:09;;;;;;;4.63;2.90;;;;;;;4.40;100.00;94628.13;5023180;28;20766;-82
2023/11/03 05:05:35;;;;;;;5.38;2.70;;;;;;;4.42;100.00;94629.41;5022839;28;20397;-83
2023/11/03 05:08:02;;;;;;;9.60;3.25;;;;;;;4.44;100.00;94634.34;5022946;28;20444;-82
2023/11/03 05:10:28;;;;;;;12.83;3.57;;;;;;;4.42;100.00;94647.75;5028753;28;20478;-82
2023/11/03 05:12:54;;;;;;;15.93;4.32;;;;;;;4.42;100.00;94644.34;5022461;28;20396;-81
2023/11/03 05:15:22;;;;;;;13.43;4.18;;;;;;;4.43;100.00;94649.31;5022532;28;20404;-80
2023/11/03 05:17:48;;;;;;;7.22;3.20;;;;;;;4.48;100.00;94651.09;5024488;28;20405;-82
2023/11/03 05:20:14;;;;;;;8.77;3.78;;;;;;;4.48;100.00;94649.25;5024904;28;20393;-82
2023/11/03 05:22:40;;;;;;;6.70;2.88;;;;;;;4.51;100.00;94643.44;5020866;28;20430;-82
2023/11/03 05:25:07;;;;;;;8.48;2.97;;;;;;;4.51;100.00;94645.31;5019865;28;20400;-81
2023/11/03 05:27:33;;;;;;;9.07;3.20;;;;;;;4.53;100.00;94656.25;5023359;28;20909;-79
2023/11/03 05:29:59;;;;;;;4.78;2.72;;;;;;;4.54;100.00;94663.84;5025925;28;20405;-80
2023/11/03 05:32:27;;;;;;;4.50;2.47;;;;;;;4.56;100.00;94656.50;5026364;28;20863;-82
2023/11/03 05:34:53;;;;;;;5.18;2.42;;;;;;;4.57;100.00;94663.31;5039136;28;20409;-82
2023/11/03 05:37:19;;;;;;;3.42;2.28;;;;;;;4.57;100.00;94663.31;5039148;28;20494;-81
2023/11/03 05:39:45;;;;;;;2.38;2.10;;;;;;;4.59;100.00;94665.63;5040384;28;20410;-81
2023/11/03 05:42:11;;;;;;;14.93;3.42;;;;;;;4.57;100.00;94657.28;5041162;28;20863;-81
2023/11/03 05:44:38;;;;;;;15.75;4.25;;;;;;;4.56;100.00;94666.97;5027538;28;20409;-81
2023/11/03 05:47:05;;;;;;;9.77;3.85;;;;;;;4.58;100.00;94664.88;5019801;28;20519;-81
2023/11/03 05:49:32;;;;;;;14.90;3.60;;;;;;;4.59;100.00;94670.84;5019335;28;20438;-81
2023/11/03 05:51:58;;;;;;;21.97;4.70;;;;;;;4.54;100.00;94679.56;5019848;28;20432;-82
2023/11/03 05:54:25;;;;;;;9.00;4.10;;;;;;;4.60;100.00;94682.91;5018971;28;20397;-81
2023/11/03 05:56:51;;;;;;;9.95;3.33;;;;;;;4.64;100.00;94686.53;5019660;28;20412;-82
2023/11/03 05:59:17;;;;;;;6.77;3.00;;;;;;;4.64;100.00;94684.69;5019999;28;20458;-82
2023/11/03 06:01:44;;;;;;;6.32;2.83;;;;;;;4.66;100.00;94687.03;5019820;28;20435;-81
2023/11/03 06:04:11;;;;;;;4.95;2.90;;;;;;;4.67;100.00;94697.22;5019656;28;20397;-80
2023/11/03 06:06:38;;;;;;;4.95;2.80;;;;;;;4.68;100.00;94693.53;5021418;28;20431;-83
2023/11/03 06:09:05;;;;;;;13.57;3.40;;;;;;;4.69;100.00;94702.19;5044822;28;20384;-85
2023/11/03 06:11:31;;;;;;;8.45;2.90;;;;;;;4.72;100.00;94700.84;5035444;28;20409;-85
2023/11/03 06:13:57;;;;;;;5.45;2.40;;;;;;;4.73;100.00;94697.19;5037579;28;20420;-85
2023/11/03 06:16:23;;;;;;;4.07;2.53;;;;;;;4.72;100.00;94706.88;5035580;28;20436;-86
2023/11/03 06:18:49;;;;;;;4.63;2.53;;;;;;;4.71;100.00;94705.31;5035302;28;20912;-85
2023/11/03 06:21:16;;;;;;;5.68;2.60;;;;;;;4.72;100.00;94711.34;5046558;28;20423;-84
2023/11/03 06:23:43;;;;;;;6.15;2.53;;;;;;;4.73;100.00;94715.53;5026572;28;20435;-84
2023/11/03 06:26:09;;;;;;;5.25;2.70;;;;;;;4.73;100.00;94718.94;5035656;28;20897;-85
2023/11/03 06:28:35;;;;;;;3.63;2.40;;;;;;;4.73;100.00;94705.81;5032053;28;20401;-85
2023/11/03 06:31:02;;;;;;;2.97;2.33;;;;;;;4.75;100.00;94718.63;5034726;28;20403;-85
2023/11/03 06:33:28;;;;;;;3.58;2.10;;;;;;;4.76;100.00;94720.97;5030148;28;20397;-84
2023/11/03 06:35:57;;;;;;;3.77;2.03;;;;;;;4.77;100.00;94724.38;5033066;28;20490;-82
2023/11/03 06:38:23;;;;;;;2.20;2.00;;;;;;;4.78;100.00;94725.94;5039588;28;20471;-82
2023/11/03 06:40:51;;;;;;;5.15;2.28;;;;;;;4.77;100.00;94740.88;5041663;28;20434;-82
2023/11/03 06:43:17;;;;;;;3.03;2.22;;;;;;;4.78;100.00;94744.28;5041324;28;20394;-82
2023/11/03 06:45:43;;;;;;;2.88;2.30;;;;;;;4.76;100.00;94741.94;5039135;28;20411;-81
2023/11/03 06:48:09;;;;;;;5.20;2.42;;;;;;;4.77;100.00;94750.59;5039533;28;20930;-80
2023/11/03 06:50:35;;;;;;;4.70;2.50;;;;;;;4.76;100.00;94754.25;5040486;28;20399;-80
2023/11/03 06:53:02;;;;;;;6.03;2.93;;;;;;;4.77;100.00;94751.38;5037654;28;20445;-81
2023/11/03 06:55:28;;;;;;;3.63;2.40;;;;;;;4.78;100.00;94747.69;5040305;28;20406;-81
2023/11/03 06:57:56;;;;;;;4.85;2.58;;;;;;;4.77;100.00;94753.97;5041976;28;20434;-86
2023/11/03 07:00:25;;;;;;;3.55;2.22;;;;;;;4.77;100.00;94759.22;5044036;28;20470;-83
2023/11/03 07:02:52;;;;;;;5.38;2.80;;;;;;;4.76;100.00;94769.97;5043259;28;20479;-82
2023/11/03 07:05:23;;;;;;;2.95;2.38;;;;;;;4.74;100.00;94780.72;5044410;28;20409;-83
2023/11/03 07:07:49;;;;;;;4.95;2.15;;;;;;;4.74;100.00;94777.31;5042404;28;20437;-84
2023/11/03 07:10:16;;;;;;;4.35;2.47;;;;;;;4.74;100.00;94782.56;5042300;28;20399;-82
2023/11/03 07:12:43;;;;;;;3.28;2.10;;;;;;;4.75;100.00;94786.75;5040269;28;20798;-80
2023/11/03 07:15:14;;;;;;;4.40;2.30;;;;;;;4.76;100.00;94790.94;5042545;28;20407;-81
2023/11/03 07:17:40;;;;;;;4.13;2.20;;;;;;;4.76;100.00;94785.69;5043071;28;20437;-83
2023/11/03 07:20:08;;;;;;;3.10;2.40;;;;;;;4.77;100.00;94784.66;5040084;28;20421;-81
2023/11/03 07:22:34;;;;;;;3.85;2.00;;;;;;;4.78;100.00;94794.06;5039116;28;20747;-79
2023/11/03 07:25:00;;;;;;;5.20;2.35;;;;;;;4.79;100.00;94795.63;5038203;28;20395;-81
2023/11/03 07:27:26;;;;;;;3.65;2.03;;;;;;;4.80;100.00;94798.00;5038279;28;20415;-81
2023/11/03 07:29:52;;;;;;;4.70;2.60;;;;;;;4.81;100.00;94791.66;5038148;28;20438;-80
2023/11/03 07:32:20;;;;;;;3.47;2.30;;;;;;;4.83;100.00;94794.78;5036615;28;20445;-80
2023/11/03 07:34:46;;;;;;;5.20;2.15;;;;;;;4.88;100.00;94797.38;5001594;28;20404;-81
2023/11/03 07:37:12;;;;;;;3.72;2.10;;;;;;;4.91;100.00;94788.94;5001865;28;20825;-81
2023/11/03 07:39:40;;;;;;;4.83;2.30;;;;;;;4.95;100.00;94789.19;5018888;28;20397;-81
2023/11/03 07:42:07;;;;;;;6.30;2.30;;;;;;;4.99;100.00;94795.41;5019450;28;20400;-81
2023/11/03 07:44:33;;;;;;;2.75;2.22;;;;;;;5.02;100.00;94792.25;5037748;28;20396;-81
2023/11/03 07:47:01;;;;;;;5.30;2.15;;;;;;;5.05;100.00;94802.94;5038407;28;20421;-80
2023/11/03 07:49:28;;;;;;;2.72;1.90;;;;;;;5.09;100.00;94794.53;5040295;28;20846;-80
2023/11/03 07:51:55;;;;;;;5.72;2.30;;;;;;;5.13;100.00;94795.53;5039312;28;20906;-81
2023/11/03 07:54:21;;;;;;;4.47;2.20;;;;;;;5.17;100.00;94796.53;5027438;28;20494;-81
2023/11/03 07:56:47;;;;;;;12.70;3.30;;;;;;;5.19;100.00;94799.69;5039306;28;20422;-81
2023/11/03 07:59:13;;;;;;;6.20;2.40;;;;;;;5.23;100.00;94792.78;5039703;28;20395;-81
2023/11/03 08:01:40;;;;;;;5.25;2.65;;;;;;;5.25;100.00;94793.31;5041167;28;20428;-83
2023/11/03 08:04:06;;;;;;;10.55;2.95;;;;;;;5.27;100.00;94799.81;5025484;28;20454;-83
2023/11/03 08:06:34;;;;;;;12.57;2.97;;;;;;;5.28;100.00;94795.34;5040451;28;20787;-84
2023/11/03 08:09:00;;;;;;;9.40;2.83;;;;;;;5.30;100.00;94786.16;5042149;28;20410;-85
2023/11/03 08:11:28;;;;;;;5.40;2.70;;;;;;;5.35;100.00;94788.69;5040037;28;20405;-84
2023/11/03 08:13:54;;;;;;;5.37;2.40;;;;;;;5.41;100.00;94792.06;5040645;28;20407;-83
2023/11/03 08:16:20;;;;;;;9.75;2.60;;;;;;;5.45;100.00;94787.81;5040998;28;20414;-84
2023/11/03 08:18:47;;;;;;;8.50;2.65;;;;;;;5.51;100.00;94791.91;5040829;28;20435;-84
2023/11/03 08:21:13;;;;;;;5.93;2.50;;;;;;;5.50;100.00;94792.97;5040639;28;20406;-83
2023/11/03 08:23:41;;;;;;;6.75;2.60;;;;;;;5.55;100.00;94797.41;5042877;28;20431;-83
2023/11/03 08:26:09;;;;;;;8.93;2.83;;;;;;;5.55;100.00;94805.25;5038028;28;20420;-83
2023/11/03 08:28:37;;;;;;;6.03;2.65;;;;;;;5.60;100.00;94807.81;5026211;28;20439;-82
2023/11/03 08:31:03;;;;;;;5.82;2.55;;;;;;;5.63;100.00;94808.03;5025456;28;20435;-82
2023/11/03 08:33:29;;;;;;;8.27;2.80;;;;;;;5.62;100.00;94811.72;5025289;28;20431;-82
2023/11/03 08:35:55;;;;;;;7.63;2.45;;;;;;;5.71;100.00;94809.25;5025431;28;20400;-82
2023/11/03 08:38:21;;;;;;;8.38;2.50;;;;;;;5.75;100.00;94811.03;5026480;28;20443;-82
2023/11/03 08:40:49;;;;;;;5.82;2.33;;;;;;;5.80;100.00;94821.44;5032593;28;20404;-80
2023/11/03 08:43:16;;;;;;;6.85;2.40;;;;;;;5.86;100.00;94822.19;5034156;28;20408;-80
2023/11/03 08:45:42;;;;;;;7.57;2.30;;;;;;;5.89;100.00;94829.50;5050835;28;20443;-82
2023/11/03 08:48:09;;;;;;;6.38;2.22;;;;;;;5.91;100.00;94827.38;5035025;28;20443;-82
2023/11/03 08:50:36;;;;;;;4.45;2.15;;;;;;;5.98;100.00;94838.31;5036272;28;20395;-82
2023/11/03 08:53:03;;;;;;;7.43;2.60;;;;;;;6.05;100.00;94843.19;5021988;28;20877;-83
2023/11/03 08:55:29;;;;;;;5.22;2.00;;;;;;;6.10;100.00;94849.16;5035967;28;20480;-83
2023/11/03 08:57:57;;;;;;;5.30;2.00;;;;;;;6.18;100.00;94853.75;5043796;28;20407;-83
2023/11/03 09:00:24;;;;;;;3.83;1.80;;;;;;;6.27;100.00;94859.16;5031634;28;20405;-81
2023/11/03 09:02:51;;;;;;;4.13;1.75;;;;;;;6.36;100.00;94854.81;5036825;28;20445;-82
2023/11/03 09:05:17;;;;;;;6.75;1.73;;;;;;;6.41;100.00;94860.00;5035794;28;20434;-82
2023/11/03 09:07:45;;;;;;;5.25;1.80;;;;;;;6.42;100.00;94860.78;5038246;28;20469;-83
2023/11/03 09:10:11;;;;;;;3.53;1.77;;;;;;;6.44;100.00;94856.81;5034973;28;20417;-82
2023/11/03 09:12:40;;;;;;;8.45;2.50;;;;;;;6.35;100.00;94869.03;5032443;28;20527;-83
2023/11/03 09:15:08;;;;;;;7.87;2.17;;;;;;;6.37;100.00;94872.16;5016381;28;20418;-83
2023/11/03 09:17:36;;;;;;;9.98;2.45;;;;;;;6.34;100.00;94864.84;5037561;28;20399;-85
2023/11/03 09:20:04;;;;;;;9.23;2.25;;;;;;;6.38;100.00;94857.97;5035666;28;20414;-80
2023/11/03 09:22:30;;;;;;;11.40;2.45;;;;;;;6.36;100.00;94861.94;5032240;28;20447;-84
2023/11/03 09:24:57;;;;;;;12.67;3.00;;;;;;;6.39;100.00;94853.47;5034639;28;21073;-83
2023/11/03 09:27:23;;;;;;;8.00;2.03;;;;;;;6.39;100.00;94862.13;5030558;28;20419;-84
2023/11/03 09:29:50;;;;;;;7.55;1.83;;;;;;;6.47;100.00;94853.59;5011234;28;20436;-84
2023/11/03 09:32:18;;;;;;;5.97;1.70;;;;;;;6.57;100.00;94856.06;5030442;28;20436;-84
2023/11/03 09:34:46;;;;;;;4.20;1.70;;;;;;;6.66;100.00;94858.81;5039882;28;20433;-86
2023/11/03 09:37:12;;;;;;;3.88;1.50;;;;;;;6.75;100.00;94851.06;5033621;28;20426;-83
2023/11/03 09:39:39;;;;;;;5.80;1.60;;;;;;;6.82;100.00;94856.72;5030262;28;20563;-84
2023/11/03 09:42:06;;;;;;;11.32;2.00;;;;;;;6.87;100.00;94846.13;5026384;28;20393;-83
2023/11/03 09:44:33;;;;;;;5.50;1.65;;;;;;;6.91;100.00;94839.22;5029466;28;20425;-83
2023/11/03 09:47:03;;;;;;;5.57;1.60;;;;;;;6.89;100.00;94846.63;5026482;28;20411;-84
2023/11/03 09:49:31;;;;;;;6.00;1.70;;;;;;;6.93;100.00;94834.44;5031495;28;20401;-84
2023/11/03 09:52:02;;;;;;;5.72;1.75;;;;;;;7.05;100.00;94839.25;5033277;28;20405;-83
2023/11/03 09:54:30;;;;;;;4.63;1.83;;;;;;;7.06;100.00;94833.69;5033443;28;20790;-84
2023/11/03 09:56:57;;;;;;;5.10;1.60;;;;;;;7.08;100.00;94841.28;5034113;28;20929;-83
2023/11/03 09:59:23;;;;;;;4.82;1.65;;;;;;;7.18;100.00;94831.34;5031477;28;20411;-82
2023/11/03 10:01:49;;;;;;;5.13;1.50;;;;;;;7.28;100.00;94833.81;5038240;28;20395;-84
2023/11/03 10:04:16;;;;;;;5.63;1.60;;;;;;;7.37;100.00;94834.66;5036337;28;20426;-84
2023/11/03 10:06:44;;;;;;;5.38;1.70;;;;;;;7.42;100.00;94835.66;5041821;28;20430;-85
2023/11/03 10:09:16;;;;;;;3.30;1.47;;;;;;;7.48;100.00;94831.84;5033649;28;20472;-83
2023/11/03 10:11:42;;;;;;;4.43;1.50;;;;;;;7.58;100.00;94836.91;5033788;28;20403;-83
2023/11/03 10:14:08;;;;;;;4.47;1.50;;;;;;;7.64;100.00;94833.09;5037888;28;20422;-83
2023/11/03 10:16:35;;;;;;;4.87;1.50;;;;;;;7.64;100.00;94830.47;5034894;28;20408;-82
2023/11/03 10:19:03;;;;;;;2.08;1.30;;;;;;;7.76;100.00;94826.25;5035735;28;20419;-83
2023/11/03 10:21:30;;;;;;;2.10;1.33;;;;;;;7.82;100.00;94829.53;5035909;28;20453;-80
2023/11/03 10:23:59;;;;;;;2.05;1.33;;;;;;;7.92;100.00;94823.28;5030486;28;20399;-78
2023/11/03 10:26:26;;;;;;;2.40;1.20;;;;;;;8.01;100.00;94824.16;5032287;28;20428;-81
2023/11/03 10:28:52;;;;;;;1.38;1.10;;;;;;;8.10;100.00;94823.16;5045854;28;20478;-82
2023/11/03 10:31:18;;;;;;;2.75;1.45;;;;;;;8.22;100.00;94819.19;5043551;28;20387;-81
2023/11/03 10:33:45;;;;;;;4.00;1.10;;;;;;;8.24;100.00;94820.47;5030937;28;20439;-79
2023/11/03 10:36:12;;;;;;;2.35;1.10;;;;;;;8.27;100.00;94811.94;5033168;28;20441;-79
2023/11/03 10:38:38;;;;;;;3.35;1.00;;;;;;;8.25;100.00;94821.25;5027123;28;20425;-80
2023/11/03 10:41:07;;;;;;;1.00;0.90;;;;;;;8.29;100.00;94814.28;5036457;28;20878;-79
2023/11/03 10:43:38;;;;;;;4.50;1.17;;;;;;;8.29;100.00;94814.28;5031756;28;20918;-80
2023/11/03 10:46:18;;;;;;;1.00;0.90;;;;;;;8.34;100.00;94811.59;5037399;28;20399;-81
2023/11/03 10:48:46;;;;;;;2.03;1.00;;;;;;;8.33;100.00;94810.81;5025089;28;20426;-80
2023/11/03 10:51:22;;;;;;;1.27;0.90;;;;;;;8.27;100.00;94808.56;5033735;28;20407;-81
2023/11/03 10:53:59;;;;;;;1.50;0.90;;;;;;;8.30;100.00;94802.69;5030587;28;20403;-81
2023/11/03 10:56:28;;;;;;;3.78;1.08;;;;;;;8.21;100.00;94818.44;5020962;28;20417;-80
2023/11/03 10:58:56;;;;;;;1.00;0.90;;;;;;;8.23;100.00;94813.66;5038212;28;20388;-81
2023/11/03 11:01:29;;;;;;;1.20;0.90;;;;;;;8.16;100.00;94818.53;5033469;28;20459;-82
2023/11/03 11:04:01;;;;;;;4.80;1.38;;;;;;;8.03;100.00;94812.25;5028272;28;20757;-82
2023/11/03 11:06:31;;;;;;;2.78;1.02;;;;;;;7.99;100.00;94813.91;5032116;28;20426;-79
2023/11/03 11:09:05;;;;;;;1.88;1.02;;;;;;;7.92;100.00;94810.91;5022057;28;20416;-80
2023/11/03 11:11:33;;;;;;;1.23;0.90;;;;;;;7.90;100.00;94820.16;5030993;28;20455;-80
2023/11/03 11:14:22;;;;;;;2.00;1.00;;;;;;;7.88;100.00;94817.06;5035722;28;20460;-80
2023/11/03 11:16:53;;;;;;;1.20;0.95;;;;;;;7.91;100.00;94811.19;5033975;28;20429;-80
2023/11/03 11:19:27;;;;;;;1.23;1.10;;;;;;;7.96;100.00;94814.53;5031108;28;20451;-81
2023/11/03 11:21:57;;;;;;;3.53;1.27;;;;;;;7.68;100.00;94818.25;5042248;28;20401;-80
2023/11/03 11:24:27;;;;;;;1.65;1.00;;;;;;;7.83;100.00;94810.03;5019786;28;20408;-82
2023/11/03 11:27:12;;;;;;;2.70;1.00;;;;;;;7.93;100.00;94809.84;5020161;28;20485;-80
2023/11/03 11:29:38;;;;;;;2.28;1.00;;;;;;;7.96;100.00;94816.38;5018807;28;20412;-81
2023/11/03 11:32:08;;;;;;;2.97;1.10;;;;;;;7.98;100.00;94814.97;5020883;28;20397;-78